sensor_id;sensor_type;location;lat;lon;timestamp;P1;durP1;ratioP1;P2;durP2;ratioP2
30677;SDS011;17437;47.188;8.896;2022-12-29T00:02:05;1.32;;;0.72;;
30677;SDS011;17437;47.188;8.896;2022-12-29T00:04:37;2.47;;;0.85;;
30677;SDS011;17437;47.188;8.896;2022-12-29T00:07:08;1.10;;;1.02;;
30677;SDS011;17437;47.188;8.896;2022-12-29T00:09:40;2.47;;;1.77;;
30677;SDS011;17437;47.188;8.896;2022-12-29T00:12:11;1.75;;;1.25;;
30677;SDS011;17437;47.188;8.896;2022-12-29T00:14:43;1.60;;;0.93;;
30677;SDS011;17437;47.188;8.896;2022-12-29T00:17:32;2.60;;;0.82;;
30677;SDS011;17437;47.188;8.896;2022-12-29T00:20:04;2.33;;;1.60;;
30677;SDS011;17437;47.188;8.896;2022-12-29T00:22:54;4.60;;;0.90;;
30677;SDS011;17437;47.188;8.896;2022-12-29T00:25:48;2.65;;;1.00;;
30677;SDS011;17437;47.188;8.896;2022-12-29T00:28:36;1.98;;;0.82;;
30677;SDS011;17437;47.188;8.896;2022-12-29T00:31:26;1.45;;;0.70;;
30677;SDS011;17437;47.188;8.896;2022-12-29T00:34:14;0.72;;;0.57;;
30677;SDS011;17437;47.188;8.896;2022-12-29T00:37:03;1.27;;;0.72;;
30677;SDS011;17437;47.188;8.896;2022-12-29T00:39:35;0.90;;;0.72;;
30677;SDS011;17437;47.188;8.896;2022-12-29T00:42:24;0.78;;;0.47;;
30677;SDS011;17437;47.188;8.896;2022-12-29T00:45:14;1.60;;;0.93;;
30677;SDS011;17437;47.188;8.896;2022-12-29T00:47:46;1.62;;;0.60;;
30677;SDS011;17437;47.188;8.896;2022-12-29T00:50:17;1.00;;;0.70;;
30677;SDS011;17437;47.188;8.896;2022-12-29T00:52:49;1.37;;;0.72;;
30677;SDS011;17437;47.188;8.896;2022-12-29T00:55:20;0.53;;;0.50;;
30677;SDS011;17437;47.188;8.896;2022-12-29T00:57:51;0.70;;;0.50;;
30677;SDS011;17437;47.188;8.896;2022-12-29T01:00:23;0.70;;;0.40;;
30677;SDS011;17437;47.188;8.896;2022-12-29T01:02:54;0.60;;;0.40;;
30677;SDS011;17437;47.188;8.896;2022-12-29T01:05:26;1.92;;;0.62;;
30677;SDS011;17437;47.188;8.896;2022-12-29T01:07:58;0.50;;;0.50;;
30677;SDS011;17437;47.188;8.896;2022-12-29T01:10:29;1.12;;;1.00;;
30677;SDS011;17437;47.188;8.896;2022-12-29T01:13:01;1.35;;;0.85;;
30677;SDS011;17437;47.188;8.896;2022-12-29T01:15:33;1.90;;;0.82;;
30677;SDS011;17437;47.188;8.896;2022-12-29T01:18:05;1.82;;;0.82;;
30677;SDS011;17437;47.188;8.896;2022-12-29T01:20:36;3.83;;;0.80;;
30677;SDS011;17437;47.188;8.896;2022-12-29T01:23:08;0.40;;;0.40;;
30677;SDS011;17437;47.188;8.896;2022-12-29T01:25:39;0.57;;;0.50;;
30677;SDS011;17437;47.188;8.896;2022-12-29T01:28:11;1.00;;;0.60;;
30677;SDS011;17437;47.188;8.896;2022-12-29T01:30:43;0.50;;;0.50;;
30677;SDS011;17437;47.188;8.896;2022-12-29T01:33:14;0.57;;;0.47;;
30677;SDS011;17437;47.188;8.896;2022-12-29T01:35:46;0.47;;;0.40;;
30677;SDS011;17437;47.188;8.896;2022-12-29T01:38:17;0.65;;;0.40;;
30677;SDS011;17437;47.188;8.896;2022-12-29T01:40:49;1.22;;;1.10;;
30677;SDS011;17437;47.188;8.896;2022-12-29T01:43:20;0.70;;;0.42;;
30677;SDS011;17437;47.188;8.896;2022-12-29T01:45:52;0.65;;;0.40;;
30677;SDS011;17437;47.188;8.896;2022-12-29T01:48:25;0.85;;;0.35;;
30677;SDS011;17437;47.188;8.896;2022-12-29T01:50:56;1.65;;;0.57;;
30677;SDS011;17437;47.188;8.896;2022-12-29T01:53:29;0.95;;;0.47;;
30677;SDS011;17437;47.188;8.896;2022-12-29T01:56:04;1.12;;;0.40;;
30677;SDS011;17437;47.188;8.896;2022-12-29T01:58:39;1.12;;;0.60;;
30677;SDS011;17437;47.188;8.896;2022-12-29T02:01:12;1.07;;;0.57;;
30677;SDS011;17437;47.188;8.896;2022-12-29T02:03:46;1.05;;;0.40;;
30677;SDS011;17437;47.188;8.896;2022-12-29T02:06:19;1.05;;;0.70;;
30677;SDS011;17437;47.188;8.896;2022-12-29T02:08:55;2.00;;;0.70;;
30677;SDS011;17437;47.188;8.896;2022-12-29T02:11:28;1.85;;;0.80;;
30677;SDS011;17437;47.188;8.896;2022-12-29T02:14:01;0.75;;;0.65;;
30677;SDS011;17437;47.188;8.896;2022-12-29T02:16:40;1.20;;;0.33;;
30677;SDS011;17437;47.188;8.896;2022-12-29T02:19:27;1.45;;;0.40;;
30677;SDS011;17437;47.188;8.896;2022-12-29T02:22:19;1.50;;;1.12;;
30677;SDS011;17437;47.188;8.896;2022-12-29T02:25:09;1.00;;;0.50;;
30677;SDS011;17437;47.188;8.896;2022-12-29T02:28:01;2.58;;;1.10;;
30677;SDS011;17437;47.188;8.896;2022-12-29T02:30:59;2.52;;;1.52;;
30677;SDS011;17437;47.188;8.896;2022-12-29T02:33:39;1.40;;;0.80;;
30677;SDS011;17437;47.188;8.896;2022-12-29T02:36:15;1.32;;;0.80;;
30677;SDS011;17437;47.188;8.896;2022-12-29T02:38:55;1.72;;;0.57;;
30677;SDS011;17437;47.188;8.896;2022-12-29T02:41:29;1.15;;;1.05;;
30677;SDS011;17437;47.188;8.896;2022-12-29T02:44:06;1.47;;;1.37;;
30677;SDS011;17437;47.188;8.896;2022-12-29T02:46:42;2.95;;;1.40;;
30677;SDS011;17437;47.188;8.896;2022-12-29T02:49:18;1.40;;;1.05;;
30677;SDS011;17437;47.188;8.896;2022-12-29T02:51:51;1.98;;;0.78;;
30677;SDS011;17437;47.188;8.896;2022-12-29T02:54:26;1.57;;;1.17;;
30677;SDS011;17437;47.188;8.896;2022-12-29T02:57:12;1.17;;;0.78;;
30677;SDS011;17437;47.188;8.896;2022-12-29T02:59:46;1.55;;;0.85;;
30677;SDS011;17437;47.188;8.896;2022-12-29T03:02:29;1.52;;;0.93;;
30677;SDS011;17437;47.188;8.896;2022-12-29T03:05:22;1.30;;;0.85;;
30677;SDS011;17437;47.188;8.896;2022-12-29T03:08:09;2.75;;;1.00;;
30677;SDS011;17437;47.188;8.896;2022-12-29T03:10:47;1.20;;;0.60;;
30677;SDS011;17437;47.188;8.896;2022-12-29T03:13:19;2.02;;;0.78;;
30677;SDS011;17437;47.188;8.896;2022-12-29T03:16:12;1.60;;;0.80;;
30677;SDS011;17437;47.188;8.896;2022-12-29T03:18:49;1.10;;;0.72;;
30677;SDS011;17437;47.188;8.896;2022-12-29T03:21:24;1.50;;;0.85;;
30677;SDS011;17437;47.188;8.896;2022-12-29T03:24:18;1.85;;;1.00;;
30677;SDS011;17437;47.188;8.896;2022-12-29T03:26:53;2.05;;;0.80;;
30677;SDS011;17437;47.188;8.896;2022-12-29T03:29:27;2.95;;;1.40;;
30677;SDS011;17437;47.188;8.896;2022-12-29T03:32:00;4.35;;;2.83;;
30677;SDS011;17437;47.188;8.896;2022-12-29T03:34:35;1.52;;;1.00;;
30677;SDS011;17437;47.188;8.896;2022-12-29T03:37:09;1.70;;;1.55;;
30677;SDS011;17437;47.188;8.896;2022-12-29T03:39:43;0.90;;;0.65;;
30677;SDS011;17437;47.188;8.896;2022-12-29T03:42:16;2.08;;;1.05;;
30677;SDS011;17437;47.188;8.896;2022-12-29T03:44:52;1.82;;;1.15;;
30677;SDS011;17437;47.188;8.896;2022-12-29T03:47:24;1.12;;;0.82;;
30677;SDS011;17437;47.188;8.896;2022-12-29T03:49:56;2.10;;;1.22;;
30677;SDS011;17437;47.188;8.896;2022-12-29T03:52:28;1.62;;;1.02;;
30677;SDS011;17437;47.188;8.896;2022-12-29T03:54:59;1.00;;;0.80;;
30677;SDS011;17437;47.188;8.896;2022-12-29T03:57:30;0.82;;;0.62;;
30677;SDS011;17437;47.188;8.896;2022-12-29T04:00:02;1.20;;;1.10;;
30677;SDS011;17437;47.188;8.896;2022-12-29T04:02:35;2.08;;;0.98;;
30677;SDS011;17437;47.188;8.896;2022-12-29T04:05:08;2.50;;;1.82;;
30677;SDS011;17437;47.188;8.896;2022-12-29T04:07:39;2.10;;;0.85;;
30677;SDS011;17437;47.188;8.896;2022-12-29T04:10:10;1.70;;;1.07;;
30677;SDS011;17437;47.188;8.896;2022-12-29T04:12:42;1.42;;;0.68;;
30677;SDS011;17437;47.188;8.896;2022-12-29T04:15:15;3.25;;;1.02;;
30677;SDS011;17437;47.188;8.896;2022-12-29T04:17:46;2.40;;;1.12;;
30677;SDS011;17437;47.188;8.896;2022-12-29T04:20:18;2.25;;;1.15;;
30677;SDS011;17437;47.188;8.896;2022-12-29T04:23:07;1.37;;;1.25;;
30677;SDS011;17437;47.188;8.896;2022-12-29T04:25:38;3.60;;;1.07;;
30677;SDS011;17437;47.188;8.896;2022-12-29T04:28:10;1.52;;;1.02;;
30677;SDS011;17437;47.188;8.896;2022-12-29T04:30:43;1.30;;;1.05;;
30677;SDS011;17437;47.188;8.896;2022-12-29T04:33:15;3.55;;;0.90;;
30677;SDS011;17437;47.188;8.896;2022-12-29T04:35:47;1.02;;;0.85;;
30677;SDS011;17437;47.188;8.896;2022-12-29T04:38:19;1.95;;;1.00;;
30677;SDS011;17437;47.188;8.896;2022-12-29T04:40:52;1.37;;;0.70;;
30677;SDS011;17437;47.188;8.896;2022-12-29T04:43:23;2.70;;;0.80;;
30677;SDS011;17437;47.188;8.896;2022-12-29T04:45:55;1.07;;;0.53;;
30677;SDS011;17437;47.188;8.896;2022-12-29T04:48:26;1.22;;;0.82;;
30677;SDS011;17437;47.188;8.896;2022-12-29T04:50:58;1.25;;;0.70;;
30677;SDS011;17437;47.188;8.896;2022-12-29T04:53:30;0.88;;;0.60;;
30677;SDS011;17437;47.188;8.896;2022-12-29T04:56:01;0.82;;;0.57;;
30677;SDS011;17437;47.188;8.896;2022-12-29T04:58:33;1.55;;;1.02;;
30677;SDS011;17437;47.188;8.896;2022-12-29T05:01:05;1.75;;;0.72;;
30677;SDS011;17437;47.188;8.896;2022-12-29T05:03:36;0.85;;;0.60;;
30677;SDS011;17437;47.188;8.896;2022-12-29T05:06:08;1.57;;;0.60;;
30677;SDS011;17437;47.188;8.896;2022-12-29T05:08:39;0.95;;;0.75;;
30677;SDS011;17437;47.188;8.896;2022-12-29T05:11:10;3.70;;;1.45;;
30677;SDS011;17437;47.188;8.896;2022-12-29T05:13:44;4.17;;;0.95;;
30677;SDS011;17437;47.188;8.896;2022-12-29T05:16:15;1.50;;;0.90;;
30677;SDS011;17437;47.188;8.896;2022-12-29T05:18:47;1.05;;;0.80;;
30677;SDS011;17437;47.188;8.896;2022-12-29T05:21:18;0.55;;;0.55;;
30677;SDS011;17437;47.188;8.896;2022-12-29T05:23:49;2.45;;;0.70;;
30677;SDS011;17437;47.188;8.896;2022-12-29T05:26:21;0.62;;;0.40;;
30677;SDS011;17437;47.188;8.896;2022-12-29T05:28:52;0.70;;;0.53;;
30677;SDS011;17437;47.188;8.896;2022-12-29T05:31:24;0.90;;;0.62;;
30677;SDS011;17437;47.188;8.896;2022-12-29T05:33:55;1.00;;;0.65;;
30677;SDS011;17437;47.188;8.896;2022-12-29T05:36:27;1.75;;;0.90;;
30677;SDS011;17437;47.188;8.896;2022-12-29T05:39:00;1.30;;;0.98;;
30677;SDS011;17437;47.188;8.896;2022-12-29T05:41:31;2.30;;;1.17;;
30677;SDS011;17437;47.188;8.896;2022-12-29T05:44:03;1.95;;;0.78;;
30677;SDS011;17437;47.188;8.896;2022-12-29T05:46:34;2.45;;;1.07;;
30677;SDS011;17437;47.188;8.896;2022-12-29T05:49:06;1.98;;;1.15;;
30677;SDS011;17437;47.188;8.896;2022-12-29T05:51:37;2.47;;;1.37;;
30677;SDS011;17437;47.188;8.896;2022-12-29T05:54:09;4.15;;;1.45;;
30677;SDS011;17437;47.188;8.896;2022-12-29T05:56:40;4.53;;;1.80;;
30677;SDS011;17437;47.188;8.896;2022-12-29T05:59:12;6.03;;;1.50;;
30677;SDS011;17437;47.188;8.896;2022-12-29T06:01:43;5.72;;;1.60;;
30677;SDS011;17437;47.188;8.896;2022-12-29T06:04:15;3.27;;;1.20;;
30677;SDS011;17437;47.188;8.896;2022-12-29T06:06:46;2.67;;;1.17;;
30677;SDS011;17437;47.188;8.896;2022-12-29T06:09:18;3.58;;;1.37;;
30677;SDS011;17437;47.188;8.896;2022-12-29T06:11:50;2.40;;;1.20;;
30677;SDS011;17437;47.188;8.896;2022-12-29T06:14:21;3.25;;;1.75;;
30677;SDS011;17437;47.188;8.896;2022-12-29T06:16:53;1.92;;;1.30;;
30677;SDS011;17437;47.188;8.896;2022-12-29T06:19:24;2.85;;;1.62;;
30677;SDS011;17437;47.188;8.896;2022-12-29T06:21:56;2.45;;;1.87;;
30677;SDS011;17437;47.188;8.896;2022-12-29T06:24:27;3.27;;;1.47;;
30677;SDS011;17437;47.188;8.896;2022-12-29T06:26:58;2.87;;;1.25;;
30677;SDS011;17437;47.188;8.896;2022-12-29T06:29:30;1.95;;;1.32;;
30677;SDS011;17437;47.188;8.896;2022-12-29T06:32:01;7.17;;;3.00;;
30677;SDS011;17437;47.188;8.896;2022-12-29T06:34:33;1.98;;;1.25;;
30677;SDS011;17437;47.188;8.896;2022-12-29T06:37:05;4.03;;;1.95;;
30677;SDS011;17437;47.188;8.896;2022-12-29T06:39:36;1.92;;;1.50;;
30677;SDS011;17437;47.188;8.896;2022-12-29T06:42:09;1.60;;;0.90;;
30677;SDS011;17437;47.188;8.896;2022-12-29T06:44:41;1.20;;;0.90;;
30677;SDS011;17437;47.188;8.896;2022-12-29T06:47:12;1.80;;;1.27;;
30677;SDS011;17437;47.188;8.896;2022-12-29T06:49:43;1.75;;;1.10;;
30677;SDS011;17437;47.188;8.896;2022-12-29T06:52:15;1.70;;;1.00;;
30677;SDS011;17437;47.188;8.896;2022-12-29T06:54:46;4.75;;;3.00;;
30677;SDS011;17437;47.188;8.896;2022-12-29T06:57:18;3.12;;;2.17;;
30677;SDS011;17437;47.188;8.896;2022-12-29T06:59:50;5.22;;;4.00;;
30677;SDS011;17437;47.188;8.896;2022-12-29T07:02:24;3.10;;;2.83;;
30677;SDS011;17437;47.188;8.896;2022-12-29T07:04:55;5.58;;;3.50;;
30677;SDS011;17437;47.188;8.896;2022-12-29T07:07:26;4.87;;;3.77;;
30677;SDS011;17437;47.188;8.896;2022-12-29T07:09:58;4.70;;;3.05;;
30677;SDS011;17437;47.188;8.896;2022-12-29T07:12:29;3.35;;;2.52;;
30677;SDS011;17437;47.188;8.896;2022-12-29T07:15:01;7.72;;;3.70;;
30677;SDS011;17437;47.188;8.896;2022-12-29T07:17:33;5.65;;;2.25;;
30677;SDS011;17437;47.188;8.896;2022-12-29T07:20:07;3.12;;;2.67;;
30677;SDS011;17437;47.188;8.896;2022-12-29T07:22:39;4.37;;;2.37;;
30677;SDS011;17437;47.188;8.896;2022-12-29T07:25:10;4.15;;;1.65;;
30677;SDS011;17437;47.188;8.896;2022-12-29T07:27:42;2.55;;;2.00;;
30677;SDS011;17437;47.188;8.896;2022-12-29T07:30:13;3.42;;;2.12;;
30677;SDS011;17437;47.188;8.896;2022-12-29T07:32:45;4.10;;;2.35;;
30677;SDS011;17437;47.188;8.896;2022-12-29T07:35:17;3.77;;;2.20;;
30677;SDS011;17437;47.188;8.896;2022-12-29T07:37:48;4.05;;;2.22;;
30677;SDS011;17437;47.188;8.896;2022-12-29T07:40:20;3.83;;;1.80;;
30677;SDS011;17437;47.188;8.896;2022-12-29T07:42:51;2.72;;;1.65;;
30677;SDS011;17437;47.188;8.896;2022-12-29T07:45:23;5.95;;;1.70;;
30677;SDS011;17437;47.188;8.896;2022-12-29T07:47:54;2.42;;;1.55;;
30677;SDS011;17437;47.188;8.896;2022-12-29T07:50:26;4.12;;;1.87;;
30677;SDS011;17437;47.188;8.896;2022-12-29T07:53:03;2.22;;;1.30;;
30677;SDS011;17437;47.188;8.896;2022-12-29T07:55:35;3.15;;;1.75;;
30677;SDS011;17437;47.188;8.896;2022-12-29T07:58:07;5.72;;;2.10;;
30677;SDS011;17437;47.188;8.896;2022-12-29T08:00:38;2.90;;;1.60;;
30677;SDS011;17437;47.188;8.896;2022-12-29T08:03:11;3.55;;;2.37;;
30677;SDS011;17437;47.188;8.896;2022-12-29T08:05:42;5.85;;;2.27;;
30677;SDS011;17437;47.188;8.896;2022-12-29T08:08:13;5.53;;;2.45;;
30677;SDS011;17437;47.188;8.896;2022-12-29T08:10:45;5.00;;;1.65;;
30677;SDS011;17437;47.188;8.896;2022-12-29T08:13:16;2.52;;;1.10;;
30677;SDS011;17437;47.188;8.896;2022-12-29T08:15:48;2.62;;;1.30;;
30677;SDS011;17437;47.188;8.896;2022-12-29T08:18:19;2.92;;;1.45;;
30677;SDS011;17437;47.188;8.896;2022-12-29T08:20:51;3.98;;;1.47;;
30677;SDS011;17437;47.188;8.896;2022-12-29T08:23:23;2.83;;;1.82;;
30677;SDS011;17437;47.188;8.896;2022-12-29T08:25:57;2.62;;;2.35;;
30677;SDS011;17437;47.188;8.896;2022-12-29T08:28:28;3.08;;;1.75;;
30677;SDS011;17437;47.188;8.896;2022-12-29T08:31:01;3.50;;;2.40;;
30677;SDS011;17437;47.188;8.896;2022-12-29T08:33:33;5.15;;;1.80;;
30677;SDS011;17437;47.188;8.896;2022-12-29T08:36:05;3.92;;;2.47;;
30677;SDS011;17437;47.188;8.896;2022-12-29T08:38:38;5.03;;;1.77;;
30677;SDS011;17437;47.188;8.896;2022-12-29T08:41:10;2.20;;;0.82;;
30677;SDS011;17437;47.188;8.896;2022-12-29T08:43:45;2.33;;;1.12;;
30677;SDS011;17437;47.188;8.896;2022-12-29T08:46:17;3.67;;;1.72;;
30677;SDS011;17437;47.188;8.896;2022-12-29T08:48:49;2.95;;;2.05;;
30677;SDS011;17437;47.188;8.896;2022-12-29T08:51:20;3.05;;;2.05;;
30677;SDS011;17437;47.188;8.896;2022-12-29T08:53:53;3.58;;;1.07;;
30677;SDS011;17437;47.188;8.896;2022-12-29T08:56:25;1.92;;;1.27;;
30677;SDS011;17437;47.188;8.896;2022-12-29T08:58:57;3.47;;;1.30;;
30677;SDS011;17437;47.188;8.896;2022-12-29T09:01:28;2.47;;;1.32;;
30677;SDS011;17437;47.188;8.896;2022-12-29T09:04:00;2.58;;;1.42;;
30677;SDS011;17437;47.188;8.896;2022-12-29T09:06:33;2.65;;;1.10;;
30677;SDS011;17437;47.188;8.896;2022-12-29T09:09:06;2.10;;;1.67;;
30677;SDS011;17437;47.188;8.896;2022-12-29T09:11:39;3.40;;;1.45;;
30677;SDS011;17437;47.188;8.896;2022-12-29T09:14:12;1.67;;;1.30;;
30677;SDS011;17437;47.188;8.896;2022-12-29T09:16:43;4.25;;;1.70;;
30677;SDS011;17437;47.188;8.896;2022-12-29T09:19:33;1.70;;;1.30;;
30677;SDS011;17437;47.188;8.896;2022-12-29T09:22:05;4.67;;;1.60;;
30677;SDS011;17437;47.188;8.896;2022-12-29T09:24:36;4.53;;;1.57;;
30677;SDS011;17437;47.188;8.896;2022-12-29T09:27:09;1.42;;;1.05;;
30677;SDS011;17437;47.188;8.896;2022-12-29T09:29:40;3.50;;;2.50;;
30677;SDS011;17437;47.188;8.896;2022-12-29T09:32:12;3.45;;;2.30;;
30677;SDS011;17437;47.188;8.896;2022-12-29T09:34:46;1.70;;;1.32;;
30677;SDS011;17437;47.188;8.896;2022-12-29T09:37:17;3.10;;;1.45;;
30677;SDS011;17437;47.188;8.896;2022-12-29T09:39:49;2.85;;;1.80;;
30677;SDS011;17437;47.188;8.896;2022-12-29T09:42:23;6.30;;;5.30;;
30677;SDS011;17437;47.188;8.896;2022-12-29T09:45:04;8.58;;;5.28;;
30677;SDS011;17437;47.188;8.896;2022-12-29T09:47:37;4.60;;;3.47;;
30677;SDS011;17437;47.188;8.896;2022-12-29T09:50:14;11.05;;;7.12;;
30677;SDS011;17437;47.188;8.896;2022-12-29T09:52:47;4.95;;;2.70;;
30677;SDS011;17437;47.188;8.896;2022-12-29T09:55:21;5.25;;;2.95;;
30677;SDS011;17437;47.188;8.896;2022-12-29T09:57:56;3.40;;;1.42;;
30677;SDS011;17437;47.188;8.896;2022-12-29T10:00:33;2.83;;;1.55;;
30677;SDS011;17437;47.188;8.896;2022-12-29T10:03:06;4.22;;;1.30;;
30677;SDS011;17437;47.188;8.896;2022-12-29T10:08:29;2.80;;;1.50;;
30677;SDS011;17437;47.188;8.896;2022-12-29T10:11:03;1.77;;;1.40;;
30677;SDS011;17437;47.188;8.896;2022-12-29T10:13:40;2.47;;;1.27;;
30677;SDS011;17437;47.188;8.896;2022-12-29T10:16:17;3.10;;;0.98;;
30677;SDS011;17437;47.188;8.896;2022-12-29T10:18:58;1.87;;;1.10;;
30677;SDS011;17437;47.188;8.896;2022-12-29T10:21:36;2.20;;;1.87;;
30677;SDS011;17437;47.188;8.896;2022-12-29T10:24:12;2.85;;;0.90;;
30677;SDS011;17437;47.188;8.896;2022-12-29T10:26:44;2.52;;;1.40;;
30677;SDS011;17437;47.188;8.896;2022-12-29T10:29:19;1.50;;;1.02;;
30677;SDS011;17437;47.188;8.896;2022-12-29T10:31:55;1.15;;;0.88;;
30677;SDS011;17437;47.188;8.896;2022-12-29T10:34:29;3.67;;;0.88;;
30677;SDS011;17437;47.188;8.896;2022-12-29T10:37:04;3.55;;;2.70;;
30677;SDS011;17437;47.188;8.896;2022-12-29T10:39:42;1.67;;;1.07;;
30677;SDS011;17437;47.188;8.896;2022-12-29T10:42:15;1.00;;;0.70;;
30677;SDS011;17437;47.188;8.896;2022-12-29T10:44:50;1.32;;;0.90;;
30677;SDS011;17437;47.188;8.896;2022-12-29T10:47:23;2.30;;;0.90;;
30677;SDS011;17437;47.188;8.896;2022-12-29T10:49:56;2.27;;;1.47;;
30677;SDS011;17437;47.188;8.896;2022-12-29T10:52:29;1.98;;;1.25;;
30677;SDS011;17437;47.188;8.896;2022-12-29T10:55:03;1.72;;;1.02;;
30677;SDS011;17437;47.188;8.896;2022-12-29T10:57:39;1.30;;;1.02;;
30677;SDS011;17437;47.188;8.896;2022-12-29T11:00:15;4.35;;;1.55;;
30677;SDS011;17437;47.188;8.896;2022-12-29T11:02:53;1.80;;;1.17;;
30677;SDS011;17437;47.188;8.896;2022-12-29T11:05:40;2.00;;;1.20;;
30677;SDS011;17437;47.188;8.896;2022-12-29T11:08:15;2.20;;;1.10;;
30677;SDS011;17437;47.188;8.896;2022-12-29T11:10:57;3.08;;;1.22;;
30677;SDS011;17437;47.188;8.896;2022-12-29T11:13:31;2.65;;;0.90;;
30677;SDS011;17437;47.188;8.896;2022-12-29T11:16:05;3.02;;;2.02;;
30677;SDS011;17437;47.188;8.896;2022-12-29T11:18:37;3.22;;;1.72;;
30677;SDS011;17437;47.188;8.896;2022-12-29T11:21:24;1.47;;;1.10;;
30677;SDS011;17437;47.188;8.896;2022-12-29T11:24:19;1.50;;;1.05;;
30677;SDS011;17437;47.188;8.896;2022-12-29T11:26:52;2.27;;;1.50;;
30677;SDS011;17437;47.188;8.896;2022-12-29T11:29:27;3.65;;;0.98;;
30677;SDS011;17437;47.188;8.896;2022-12-29T11:32:05;2.17;;;1.12;;
30677;SDS011;17437;47.188;8.896;2022-12-29T11:34:39;1.77;;;1.50;;
30677;SDS011;17437;47.188;8.896;2022-12-29T11:37:11;3.25;;;1.40;;
30677;SDS011;17437;47.188;8.896;2022-12-29T11:39:46;5.58;;;3.45;;
30677;SDS011;17437;47.188;8.896;2022-12-29T11:42:21;4.55;;;1.62;;
30677;SDS011;17437;47.188;8.896;2022-12-29T11:44:55;3.62;;;1.60;;
30677;SDS011;17437;47.188;8.896;2022-12-29T11:47:27;3.52;;;1.15;;
30677;SDS011;17437;47.188;8.896;2022-12-29T11:50:02;4.25;;;1.12;;
30677;SDS011;17437;47.188;8.896;2022-12-29T11:52:36;2.37;;;1.50;;
30677;SDS011;17437;47.188;8.896;2022-12-29T11:55:13;1.75;;;1.20;;
30677;SDS011;17437;47.188;8.896;2022-12-29T11:57:48;2.42;;;1.50;;
30677;SDS011;17437;47.188;8.896;2022-12-29T12:00:23;2.35;;;1.15;;
30677;SDS011;17437;47.188;8.896;2022-12-29T12:02:57;2.15;;;1.25;;
30677;SDS011;17437;47.188;8.896;2022-12-29T12:05:35;1.95;;;1.20;;
30677;SDS011;17437;47.188;8.896;2022-12-29T12:08:11;3.00;;;1.25;;
30677;SDS011;17437;47.188;8.896;2022-12-29T12:10:47;1.75;;;1.10;;
30677;SDS011;17437;47.188;8.896;2022-12-29T12:13:22;3.58;;;1.17;;
30677;SDS011;17437;47.188;8.896;2022-12-29T12:15:59;3.92;;;1.42;;
30677;SDS011;17437;47.188;8.896;2022-12-29T12:18:34;1.65;;;0.82;;
30677;SDS011;17437;47.188;8.896;2022-12-29T12:21:23;1.67;;;1.05;;
30677;SDS011;17437;47.188;8.896;2022-12-29T12:24:00;3.12;;;1.00;;
30677;SDS011;17437;47.188;8.896;2022-12-29T12:27:00;1.75;;;1.00;;
30677;SDS011;17437;47.188;8.896;2022-12-29T12:29:35;2.40;;;1.22;;
30677;SDS011;17437;47.188;8.896;2022-12-29T12:32:12;6.25;;;4.22;;
30677;SDS011;17437;47.188;8.896;2022-12-29T12:34:48;5.58;;;2.37;;
30677;SDS011;17437;47.188;8.896;2022-12-29T12:37:31;2.77;;;1.42;;
30677;SDS011;17437;47.188;8.896;2022-12-29T12:40:27;5.10;;;3.00;;
30677;SDS011;17437;47.188;8.896;2022-12-29T12:43:12;4.72;;;2.45;;
30677;SDS011;17437;47.188;8.896;2022-12-29T12:46:01;2.98;;;1.72;;
30677;SDS011;17437;47.188;8.896;2022-12-29T12:48:36;2.72;;;1.82;;
30677;SDS011;17437;47.188;8.896;2022-12-29T12:51:29;3.27;;;1.42;;
30677;SDS011;17437;47.188;8.896;2022-12-29T12:54:07;1.92;;;1.22;;
30677;SDS011;17437;47.188;8.896;2022-12-29T12:56:50;2.17;;;1.70;;
30677;SDS011;17437;47.188;8.896;2022-12-29T12:59:34;2.33;;;1.27;;
30677;SDS011;17437;47.188;8.896;2022-12-29T13:02:17;3.90;;;1.67;;
30677;SDS011;17437;47.188;8.896;2022-12-29T13:04:58;2.17;;;1.10;;
30677;SDS011;17437;47.188;8.896;2022-12-29T13:07:40;2.85;;;1.82;;
30677;SDS011;17437;47.188;8.896;2022-12-29T13:10:19;5.28;;;2.02;;
30677;SDS011;17437;47.188;8.896;2022-12-29T13:12:55;1.77;;;1.20;;
30677;SDS011;17437;47.188;8.896;2022-12-29T13:15:34;2.70;;;2.00;;
30677;SDS011;17437;47.188;8.896;2022-12-29T13:18:12;3.52;;;3.05;;
30677;SDS011;17437;47.188;8.896;2022-12-29T13:20:47;4.60;;;3.65;;
30677;SDS011;17437;47.188;8.896;2022-12-29T13:23:22;3.00;;;2.50;;
30677;SDS011;17437;47.188;8.896;2022-12-29T13:25:58;2.83;;;2.00;;
30677;SDS011;17437;47.188;8.896;2022-12-29T13:28:32;6.33;;;3.05;;
30677;SDS011;17437;47.188;8.896;2022-12-29T13:31:08;5.40;;;3.47;;
30677;SDS011;17437;47.188;8.896;2022-12-29T13:33:42;6.95;;;3.35;;
30677;SDS011;17437;47.188;8.896;2022-12-29T13:36:20;3.27;;;2.58;;
30677;SDS011;17437;47.188;8.896;2022-12-29T13:38:56;3.98;;;2.80;;
30677;SDS011;17437;47.188;8.896;2022-12-29T13:41:32;5.78;;;3.75;;
30677;SDS011;17437;47.188;8.896;2022-12-29T13:44:05;3.42;;;2.35;;
30677;SDS011;17437;47.188;8.896;2022-12-29T13:46:42;5.92;;;2.67;;
30677;SDS011;17437;47.188;8.896;2022-12-29T13:49:17;4.92;;;2.75;;
30677;SDS011;17437;47.188;8.896;2022-12-29T13:51:49;4.90;;;3.30;;
30677;SDS011;17437;47.188;8.896;2022-12-29T13:54:27;3.85;;;2.65;;
30677;SDS011;17437;47.188;8.896;2022-12-29T13:57:03;5.60;;;2.20;;
30677;SDS011;17437;47.188;8.896;2022-12-29T13:59:40;12.37;;;2.50;;
30677;SDS011;17437;47.188;8.896;2022-12-29T14:02:17;6.87;;;3.15;;
30677;SDS011;17437;47.188;8.896;2022-12-29T14:04:57;3.67;;;2.55;;
30677;SDS011;17437;47.188;8.896;2022-12-29T14:07:35;5.58;;;2.40;;
30677;SDS011;17437;47.188;8.896;2022-12-29T14:10:18;3.20;;;2.05;;
30677;SDS011;17437;47.188;8.896;2022-12-29T14:13:00;2.67;;;1.67;;
30677;SDS011;17437;47.188;8.896;2022-12-29T14:15:36;3.60;;;1.60;;
30677;SDS011;17437;47.188;8.896;2022-12-29T14:18:14;3.17;;;1.75;;
30677;SDS011;17437;47.188;8.896;2022-12-29T14:20:50;6.25;;;2.02;;
30677;SDS011;17437;47.188;8.896;2022-12-29T14:23:34;3.20;;;1.92;;
30677;SDS011;17437;47.188;8.896;2022-12-29T14:26:13;1.80;;;1.32;;
30677;SDS011;17437;47.188;8.896;2022-12-29T14:28:47;3.50;;;1.72;;
30677;SDS011;17437;47.188;8.896;2022-12-29T14:31:34;3.02;;;1.27;;
30677;SDS011;17437;47.188;8.896;2022-12-29T14:34:30;12.05;;;7.37;;
30677;SDS011;17437;47.188;8.896;2022-12-29T14:37:23;5.17;;;3.27;;
30677;SDS011;17437;47.188;8.896;2022-12-29T14:42:35;5.58;;;2.30;;
30677;SDS011;17437;47.188;8.896;2022-12-29T14:47:53;4.62;;;2.00;;
30677;SDS011;17437;47.188;8.896;2022-12-29T14:50:29;7.15;;;3.27;;
30677;SDS011;17437;47.188;8.896;2022-12-29T14:53:03;3.90;;;1.70;;
30677;SDS011;17437;47.188;8.896;2022-12-29T14:55:38;6.22;;;2.20;;
30677;SDS011;17437;47.188;8.896;2022-12-29T14:58:14;3.72;;;1.70;;
30677;SDS011;17437;47.188;8.896;2022-12-29T15:00:47;3.58;;;2.25;;
30677;SDS011;17437;47.188;8.896;2022-12-29T15:03:21;3.47;;;2.27;;
30677;SDS011;17437;47.188;8.896;2022-12-29T15:05:54;2.85;;;1.72;;
30677;SDS011;17437;47.188;8.896;2022-12-29T15:08:30;5.75;;;1.90;;
30677;SDS011;17437;47.188;8.896;2022-12-29T15:11:09;5.75;;;2.37;;
30677;SDS011;17437;47.188;8.896;2022-12-29T15:13:42;2.85;;;2.55;;
30677;SDS011;17437;47.188;8.896;2022-12-29T15:16:21;3.05;;;1.60;;
30677;SDS011;17437;47.188;8.896;2022-12-29T15:18:53;4.37;;;2.47;;
30677;SDS011;17437;47.188;8.896;2022-12-29T15:21:27;10.32;;;4.20;;
30677;SDS011;17437;47.188;8.896;2022-12-29T15:24:00;7.30;;;3.45;;
30677;SDS011;17437;47.188;8.896;2022-12-29T15:26:36;17.30;;;4.33;;
30677;SDS011;17437;47.188;8.896;2022-12-29T15:29:28;4.58;;;3.02;;
30677;SDS011;17437;47.188;8.896;2022-12-29T15:32:14;4.80;;;3.20;;
30677;SDS011;17437;47.188;8.896;2022-12-29T15:34:48;7.00;;;3.55;;
30677;SDS011;17437;47.188;8.896;2022-12-29T15:37:21;6.00;;;3.27;;
30677;SDS011;17437;47.188;8.896;2022-12-29T15:39:55;4.95;;;2.92;;
30677;SDS011;17437;47.188;8.896;2022-12-29T15:42:32;6.97;;;4.17;;
30677;SDS011;17437;47.188;8.896;2022-12-29T15:45:08;6.12;;;3.35;;